Time;durP1;ratioP1;P1;durP2;ratioP2;P2;SDS_P1;SDS_P2;PMS_P1;PMS_P2;Temp;Humidity;BMP_temperature;BMP_pressure;BME280_temperature;BME280_humidity;BME280_pressure;Samples;Min_cycle;Max_cycle;Signal;HPM_P1;HPM_P2
2021/12/24 00:01:22;;;;;;;47.88;18.88;;;;;;;4.37;100.00;99213.97;5285576;28;20111;-80
2021/12/24 00:03:52;;;;;;;37.83;18.25;;;;;;;4.37;100.00;99219.13;5284566;28;20475;-80
2021/12/24 00:06:23;;;;;;;37.72;18.75;;;;;;;4.37;100.00;99211.38;5289107;28;20302;-80
2021/12/24 00:08:55;;;;;;;42.13;18.00;;;;;;;4.31;100.00;99214.16;5289814;28;20035;-80
2021/12/24 00:11:25;;;;;;;36.60;17.55;;;;;;;4.30;100.00;99207.28;5288535;28;20051;-80
2021/12/24 00:13:56;;;;;;;36.33;17.58;;;;;;;4.35;100.00;99205.41;5289225;28;20047;-80
2021/12/24 00:16:37;;;;;;;42.88;17.20;;;;;;;4.36;100.00;99203.66;5270729;28;20514;-80
2021/12/24 00:35:51;;;;;;;31.13;15.60;;;;;;;4.49;100.00;99186.84;5268085;28;20115;-77
2021/12/24 00:38:23;;;;;;;33.58;14.68;;;;;;;4.45;100.00;99180.09;5274328;28;20115;-77
2021/12/24 00:40:55;;;;;;;28.85;14.60;;;;;;;4.45;100.00;99187.84;5269076;28;20027;-77
2021/12/24 00:43:25;;;;;;;29.77;14.85;;;;;;;4.44;100.00;99160.31;5274133;28;20088;-77
2021/12/24 00:45:56;;;;;;;28.83;14.43;;;;;;;4.45;100.00;99180.09;5275044;28;20027;-77
2021/12/24 00:48:26;;;;;;;23.55;12.73;;;;;;;4.49;100.00;99172.16;5274067;28;20112;-77
2021/12/24 00:56:14;;;;;;;23.65;11.57;;;;;;;4.65;100.00;99162.97;5286350;27;20031;-77
2021/12/24 00:58:45;;;;;;;23.70;11.98;;;;;;;4.57;100.00;99165.00;5289271;27;20029;-77
2021/12/24 01:01:15;;;;;;;20.92;11.90;;;;;;;4.63;100.00;99169.97;5295407;27;20035;-75
2021/12/24 01:03:45;;;;;;;20.23;10.82;;;;;;;4.71;100.00;99169.69;5287136;27;20027;-76
2021/12/24 01:06:16;;;;;;;21.17;11.23;;;;;;;4.72;100.00;99171.38;5294122;27;20535;-76
2021/12/24 01:08:46;;;;;;;20.33;10.65;;;;;;;4.77;100.00;99170.31;5286512;27;20258;-76
2021/12/24 01:11:16;;;;;;;20.05;9.60;;;;;;;4.76;100.00;99155.72;5288462;27;20111;-76
2021/12/24 01:13:47;;;;;;;19.58;10.43;;;;;;;4.82;100.00;99163.25;5287346;27;20027;-77
2021/12/24 01:16:59;;;;;;;17.52;8.73;;;;;;;4.87;100.00;99158.78;5295326;27;20042;-76
2021/12/24 01:19:19;;;;;;;18.30;8.70;;;;;;;4.83;100.00;99149.41;5280240;27;20061;-77
2021/12/24 01:25:03;;;;;;;14.32;8.18;;;;;;;4.90;100.00;99148.31;5292103;27;20030;-76
2021/12/24 01:27:59;;;;;;;15.27;7.90;;;;;;;4.94;100.00;99154.22;5295111;27;20473;-77
2021/12/24 01:38:58;;;;;;;10.90;6.85;;;;;;;5.01;100.00;99143.56;5297432;27;20042;-77
2021/12/24 01:44:21;;;;;;;12.43;6.82;;;;;;;5.04;100.00;99140.91;5293403;27;20030;-78
2021/12/24 01:46:54;;;;;;;11.88;7.13;;;;;;;5.06;100.00;99133.06;5298328;27;20019;-77
2021/12/24 01:49:24;;;;;;;12.40;6.75;;;;;;;5.10;100.00;99132.03;5293419;27;20023;-77
2021/12/24 01:51:57;;;;;;;11.20;6.78;;;;;;;5.20;100.00;99126.50;5298467;27;20511;-77
2021/12/24 01:54:27;;;;;;;9.93;5.82;;;;;;;5.21;100.00;99128.19;5297850;27;20045;-77
2021/12/24 01:56:57;;;;;;;9.18;6.38;;;;;;;5.22;100.00;99124.69;5299130;27;20106;-77
2021/12/24 01:59:28;;;;;;;10.02;6.35;;;;;;;5.21;100.00;99117.81;5279856;28;20035;-76
2021/12/24 02:01:58;;;;;;;8.65;5.88;;;;;;;5.18;100.00;99133.44;5276610;27;20055;-77
2021/12/24 02:04:28;;;;;;;8.55;5.55;;;;;;;5.21;100.00;99123.00;5292436;27;20027;-77
2021/12/24 02:06:59;;;;;;;8.18;4.88;;;;;;;5.26;100.00;99123.66;5297305;28;20067;-77
2021/12/24 02:09:30;;;;;;;7.05;4.72;;;;;;;5.35;100.00;99107.75;5296557;28;20031;-76
2021/12/24 02:12:01;;;;;;;9.40;4.10;;;;;;;5.43;100.00;99108.31;5298183;28;20502;-76
2021/12/24 02:14:36;;;;;;;5.53;3.30;;;;;;;5.43;100.00;99108.31;5297828;28;20039;-77
2021/12/24 02:17:30;;;;;;;7.27;4.90;;;;;;;5.49;100.00;99103.75;5295108;28;20023;-77
2021/12/24 02:28:38;;;;;;;4.82;3.70;;;;;;;5.68;100.00;99090.91;5297622;28;20035;-77
2021/12/24 02:31:13;;;;;;;4.47;2.90;;;;;;;5.80;100.00;99086.13;5299232;28;20019;-77
2021/12/24 02:33:43;;;;;;;4.35;3.05;;;;;;;5.81;100.00;99085.22;5285699;28;20028;-77
2021/12/24 02:36:14;;;;;;;3.65;2.80;;;;;;;5.83;100.00;99088.59;5297439;28;20028;-77
2021/12/24 02:38:45;;;;;;;3.53;2.83;;;;;;;5.83;100.00;99085.16;5303015;28;20038;-77
2021/12/24 02:41:16;;;;;;;4.10;3.15;;;;;;;5.88;100.00;99086.66;5298248;28;20536;-77
2021/12/24 02:43:47;;;;;;;3.97;3.10;;;;;;;5.91;100.00;99083.09;5304638;28;20044;-77
2021/12/24 02:54:28;;;;;;;3.45;2.20;;;;;;;5.96;100.00;99079.41;5301588;28;20262;-77
2021/12/24 02:57:07;;;;;;;4.43;3.00;;;;;;;6.01;100.00;99071.44;5282295;28;20198;-77
2021/12/24 02:59:47;;;;;;;4.72;3.55;;;;;;;5.98;100.00;99077.59;5301691;28;20039;-77
2021/12/24 03:02:17;;;;;;;3.40;2.40;;;;;;;6.10;100.00;99071.06;5296685;28;20149;-76
2021/12/24 03:04:47;;;;;;;3.55;2.70;;;;;;;6.17;100.00;99070.75;5302993;28;20090;-76
2021/12/24 03:07:18;;;;;;;4.80;3.78;;;;;;;6.20;100.00;99074.94;5299676;28;20019;-76
2021/12/24 03:09:48;;;;;;;3.42;2.55;;;;;;;6.10;100.00;99071.06;5302664;28;20461;-77
2021/12/24 03:12:19;;;;;;;3.25;2.67;;;;;;;6.19;100.00;99061.16;5300614;28;20114;-76
2021/12/24 03:14:49;;;;;;;4.03;3.35;;;;;;;6.20;100.00;99059.38;5305916;27;20036;-77
2021/12/24 03:17:23;;;;;;;4.63;3.80;;;;;;;6.16;100.00;99065.63;5304627;27;20349;-77
2021/12/24 03:19:57;;;;;;;4.65;4.15;;;;;;;6.16;100.00;99057.84;5300748;27;20031;-77
2021/12/24 03:25:00;;;;;;;2.85;2.17;;;;;;;6.19;100.00;99049.91;5306536;27;20458;-77
2021/12/24 03:27:30;;;;;;;3.95;2.72;;;;;;;6.32;100.00;99045.91;5304339;27;20035;-77
2021/12/24 03:30:01;;;;;;;2.63;1.98;;;;;;;6.21;100.00;99037.72;5310901;27;20019;-77
2021/12/24 03:32:31;;;;;;;2.22;1.73;;;;;;;6.16;100.00;99035.34;5308629;27;20027;-77
2021/12/24 03:35:03;;;;;;;2.13;1.42;;;;;;;6.30;100.00;99043.38;5306213;27;20031;-77
2021/12/24 03:37:34;;;;;;;3.83;2.75;;;;;;;6.36;100.00;99034.47;5305827;27;20023;-77
2021/12/24 03:40:05;;;;;;;4.30;3.72;;;;;;;6.38;100.00;99035.25;5284336;27;20409;-76
2021/12/24 03:42:38;;;;;;;4.10;3.20;;;;;;;6.30;100.00;99037.34;5305986;27;20023;-77
2021/12/24 03:45:37;;;;;;;4.65;4.15;;;;;;;6.32;100.00;99030.34;5303208;27;20042;-78
2021/12/24 03:48:03;;;;;;;4.40;3.65;;;;;;;6.36;100.00;99024.09;5303311;27;20408;-76
2021/12/24 03:50:49;;;;;;;3.45;2.90;;;;;;;6.29;100.00;99023.53;5295898;27;20597;-78
2021/12/24 03:56:16;;;;;;;4.63;4.10;;;;;;;6.31;100.00;99028.66;5279640;27;20266;-76
2021/12/24 03:58:46;;;;;;;3.78;3.25;;;;;;;6.44;100.00;99024.63;5307336;27;20452;-77
2021/12/24 04:01:17;;;;;;;3.53;3.05;;;;;;;6.40;100.00;99023.09;5303466;27;20032;-78
2021/12/24 04:03:47;;;;;;;4.00;3.08;;;;;;;6.40;100.00;99023.09;5307731;27;20031;-76
2021/12/24 04:06:18;;;;;;;4.60;3.90;;;;;;;6.44;100.00;99019.44;5304399;27;20445;-76
2021/12/24 04:08:48;;;;;;;4.72;4.20;;;;;;;6.45;100.00;99015.94;5306968;27;20019;-76
2021/12/24 04:11:18;;;;;;;3.28;2.80;;;;;;;6.51;100.00;99016.50;5304525;27;20083;-76
2021/12/24 04:13:49;;;;;;;4.55;4.10;;;;;;;6.47;100.00;99014.97;5311048;27;20406;-77
2021/12/24 04:16:19;;;;;;;4.80;4.25;;;;;;;6.40;100.00;99010.94;5305656;27;20027;-77
2021/12/24 04:19:12;;;;;;;3.20;2.55;;;;;;;6.48;100.00;99011.47;5303015;27;20352;-76
2021/12/24 04:24:52;;;;;;;3.35;2.42;;;;;;;6.40;100.00;99007.53;5304246;27;20038;-77
2021/12/24 04:27:26;;;;;;;3.25;2.22;;;;;;;6.50;100.00;99003.59;5301765;27;20362;-77
2021/12/24 04:30:09;;;;;;;3.78;2.60;;;;;;;6.44;100.00;98996.09;5302495;27;20028;-76
2021/12/24 04:35:57;;;;;;;4.53;3.15;;;;;;;6.54;100.00;98999.94;5220830;28;20029;-77
2021/12/24 04:38:56;;;;;;;6.88;4.97;;;;;;;6.59;100.00;98995.41;5298626;27;20039;-76
2021/12/24 04:53:08;;;;;;;4.28;3.70;;;;;;;6.73;100.00;98988.69;5306201;27;20041;-77
2021/12/24 05:01:39;;;;;;;4.72;3.47;;;;;;;6.67;100.00;98978.59;5299406;27;20035;-78
2021/12/24 05:04:11;;;;;;;4.00;2.90;;;;;;;6.76;100.00;98980.75;5302631;27;20027;-77
2021/12/24 05:06:51;;;;;;;3.55;2.70;;;;;;;6.90;100.00;98974.94;5306789;27;20023;-77
2021/12/24 05:09:24;;;;;;;7.55;4.35;;;;;;;6.76;100.00;98974.72;5300340;27;20039;-76
2021/12/24 05:11:54;;;;;;;5.07;4.25;;;;;;;6.79;100.00;98974.56;5305758;27;20035;-78
2021/12/24 05:14:27;;;;;;;6.38;3.65;;;;;;;6.84;100.00;98972.59;5304761;27;20381;-77
2021/12/24 05:17:45;;;;;;;6.53;4.78;;;;;;;6.79;100.00;98974.56;5305450;27;20024;-77
2021/12/24 05:22:43;;;;;;;4.22;3.70;;;;;;;6.86;100.00;98971.63;5299881;27;19922;-77
2021/12/24 05:25:13;;;;;;;5.05;3.40;;;;;;;6.78;100.00;98970.31;5306815;27;20125;-76
2021/12/24 05:27:44;;;;;;;5.53;4.78;;;;;;;6.77;100.00;98972.03;5302836;27;20035;-77
2021/12/24 05:30:14;;;;;;;5.63;4.32;;;;;;;6.81;100.00;98968.41;5306178;27;20115;-76
2021/12/24 05:32:45;;;;;;;5.60;5.00;;;;;;;6.87;100.00;98956.88;5302810;27;20024;-77
2021/12/24 05:35:15;;;;;;;5.78;4.18;;;;;;;6.97;100.00;98960.75;5307601;27;20023;-78
2021/12/24 05:37:46;;;;;;;6.20;4.50;;;;;;;6.90;100.00;98978.34;5283419;28;20030;-76
2021/12/24 05:40:16;;;;;;;4.15;3.72;;;;;;;6.83;100.00;98960.53;5300610;27;20385;-77
2021/12/24 05:42:46;;;;;;;5.13;3.10;;;;;;;6.87;100.00;98968.13;5299430;27;20027;-76
2021/12/24 05:45:17;;;;;;;3.55;2.38;;;;;;;6.97;100.00;98969.34;5303297;27;20031;-78
2021/12/24 05:47:47;;;;;;;4.50;2.97;;;;;;;7.01;100.00;98975.25;5299510;27;20020;-76
2021/12/24 05:50:18;;;;;;;4.18;2.70;;;;;;;7.05;100.00;98966.41;5274176;28;20024;-75
2021/12/24 05:52:48;;;;;;;3.15;2.40;;;;;;;7.11;100.00;98966.97;5290778;27;20476;-77
2021/12/24 05:55:18;;;;;;;5.97;4.38;;;;;;;7.13;100.00;98972.09;5297280;27;20342;-77
2021/12/24 05:57:49;;;;;;;4.50;3.65;;;;;;;7.10;100.00;98969.66;5296888;27;20024;-77
2021/12/24 06:00:20;;;;;;;4.40;3.70;;;;;;;7.07;100.00;98975.00;5299690;27;20417;-77
2021/12/24 06:02:50;;;;;;;5.65;4.68;;;;;;;7.21;100.00;98972.56;5299219;27;20055;-77
2021/12/24 06:05:20;;;;;;;5.03;4.00;;;;;;;7.26;100.00;98962.81;5303788;27;20023;-77
2021/12/24 06:07:51;;;;;;;7.22;5.40;;;;;;;7.22;100.00;98962.09;5301884;28;20039;-76
2021/12/24 06:10:21;;;;;;;4.55;3.30;;;;;;;7.19;100.00;98953.59;5303710;28;20023;-76
2021/12/24 06:12:51;;;;;;;5.50;3.78;;;;;;;7.24;100.00;98952.47;5302889;28;20077;-77
2021/12/24 06:15:24;;;;;;;8.48;5.43;;;;;;;7.28;100.00;98949.66;5303749;28;20026;-77
2021/12/24 06:17:57;;;;;;;7.22;5.13;;;;;;;7.32;100.00;98952.97;5303578;28;20030;-77
2021/12/24 06:20:27;;;;;;;4.85;3.10;;;;;;;7.35;100.00;98951.03;5296137;28;20047;-78
2021/12/24 06:22:57;;;;;;;6.78;4.13;;;;;;;7.36;100.00;98952.72;5298950;28;20034;-78
2021/12/24 06:25:28;;;;;;;7.43;4.15;;;;;;;7.47;100.00;98949.59;5303646;28;20019;-77
2021/12/24 06:27:58;;;;;;;7.30;5.03;;;;;;;7.45;100.00;98956.63;5313271;22;20039;-81
2021/12/24 06:30:29;;;;;;;8.05;6.00;;;;;;;7.40;100.00;98954.28;5297822;28;20032;-81
2021/12/24 06:33:00;;;;;;;7.78;5.50;;;;;;;7.41;100.00;98958.56;5293756;28;20019;-81
2021/12/24 06:35:30;;;;;;;8.50;6.65;;;;;;;7.45;100.00;98954.03;5295495;28;20030;-82
2021/12/24 06:38:01;;;;;;;13.15;10.20;;;;;;;7.47;100.00;98953.06;5285765;28;20030;-81
2021/12/24 06:40:32;;;;;;;9.13;6.15;;;;;;;7.59;100.00;98952.47;5284095;28;20500;-83
2021/12/24 06:43:03;;;;;;;11.15;6.95;;;;;;;7.55;100.00;98961.28;5269442;28;20035;-82
2021/12/24 06:45:34;;;;;;;10.23;6.47;;;;;;;7.55;100.00;98961.28;5280237;28;20035;-83
2021/12/24 06:48:05;;;;;;;9.27;5.68;;;;;;;7.69;100.00;98982.25;5284197;28;20092;-80
2021/12/24 06:50:35;;;;;;;9.55;5.85;;;;;;;7.77;100.00;98971.47;5276131;28;20031;-86
2021/12/24 06:53:05;;;;;;;9.95;5.95;;;;;;;7.77;100.00;98972.34;5281280;28;20027;-79
2021/12/24 06:55:36;;;;;;;8.75;6.65;;;;;;;7.77;100.00;98980.13;5283621;28;20062;-79
2021/12/24 06:58:06;;;;;;;9.80;6.68;;;;;;;7.74;100.00;98975.06;5288058;28;20046;-81
2021/12/24 07:00:37;;;;;;;10.57;8.02;;;;;;;7.73;100.00;98973.38;5287942;28;20088;-82
2021/12/24 07:03:07;;;;;;;11.63;6.43;;;;;;;7.83;100.00;98978.97;5287878;28;20023;-85
2021/12/24 07:05:37;;;;;;;10.43;6.28;;;;;;;7.84;100.00;98971.09;5287644;28;20035;-83
2021/12/24 07:08:08;;;;;;;9.00;6.00;;;;;;;7.81;100.00;98981.66;5288026;28;20262;-82
2021/12/24 07:10:38;;;;;;;8.02;5.32;;;;;;;7.88;100.00;98977.00;5287656;28;20076;-82
2021/12/24 07:13:08;;;;;;;7.85;5.75;;;;;;;7.83;100.00;98973.75;5284432;28;20019;-83
2021/12/24 07:15:38;;;;;;;8.40;5.95;;;;;;;7.88;100.00;98975.22;5285453;28;20507;-79
2021/12/24 07:18:09;;;;;;;8.93;6.65;;;;;;;7.90;100.00;98975.16;5269063;28;20076;-80
2021/12/24 07:20:40;;;;;;;7.88;5.53;;;;;;;7.93;100.00;98985.41;5274899;28;20159;-78
2021/12/24 07:23:10;;;;;;;7.05;5.20;;;;;;;7.91;100.00;98982.88;5284547;28;20019;-80
2021/12/24 07:25:40;;;;;;;7.47;5.80;;;;;;;7.85;100.00;98983.19;5287575;28;20258;-84
2021/12/24 07:28:10;;;;;;;6.53;5.00;;;;;;;7.91;100.00;98982.03;5286526;28;20031;-84
2021/12/24 07:30:41;;;;;;;7.15;5.15;;;;;;;7.96;100.00;98969.63;5281723;28;20488;-84
2021/12/24 07:33:14;;;;;;;6.03;4.43;;;;;;;7.84;100.00;98975.47;5271078;28;20162;-82
2021/12/24 07:35:46;;;;;;;6.32;4.28;;;;;;;7.88;100.00;98975.22;5260281;28;20064;-84
2021/12/24 07:38:16;;;;;;;6.15;4.38;;;;;;;7.91;100.00;98975.06;5286988;28;20023;-79
2021/12/24 07:40:46;;;;;;;5.97;3.88;;;;;;;7.97;100.00;98963.50;5287311;28;20080;-79
2021/12/24 07:43:17;;;;;;;5.90;4.00;;;;;;;8.01;100.00;98962.47;5255408;28;20031;-84
2021/12/24 07:45:49;;;;;;;5.90;4.10;;;;;;;7.98;100.00;98965.19;5277306;28;20106;-79
2021/12/24 07:48:27;;;;;;;6.40;4.15;;;;;;;8.01;100.00;98970.28;5275133;28;20397;-79
2021/12/24 07:53:30;;;;;;;6.47;4.68;;;;;;;8.06;100.00;98971.69;5273716;28;20210;-80
2021/12/24 07:56:00;;;;;;;7.85;4.82;;;;;;;7.98;100.00;98963.44;5271832;28;20028;-80
2021/12/24 07:58:31;;;;;;;6.38;4.47;;;;;;;8.08;100.00;98959.44;5271490;28;20547;-85
2021/12/24 08:01:07;;;;;;;7.88;5.57;;;;;;;8.10;100.00;98969.78;5277332;28;20166;-84
2021/12/24 08:03:37;;;;;;;5.75;4.18;;;;;;;8.07;100.00;98973.38;5269496;28;20027;-81
2021/12/24 08:06:07;;;;;;;9.95;4.95;;;;;;;8.09;100.00;98971.56;5273076;28;20028;-79
2021/12/24 08:08:37;;;;;;;7.10;3.90;;;;;;;8.07;100.00;98965.56;5274272;28;20622;-79
2021/12/24 08:11:08;;;;;;;6.18;4.20;;;;;;;8.14;100.00;98968.69;5272744;28;20112;-85
2021/12/24 08:13:38;;;;;;;7.15;4.15;;;;;;;8.11;100.00;98963.66;5273868;28;20035;-82
2021/12/24 08:16:09;;;;;;;6.68;4.28;;;;;;;8.18;100.00;98965.91;5286276;28;20019;-80
2021/12/24 08:18:43;;;;;;;8.18;4.70;;;;;;;8.12;100.00;98967.94;5275042;28;20045;-80
2021/12/24 08:21:13;;;;;;;7.32;5.30;;;;;;;8.19;100.00;98970.19;5253875;28;20024;-80
2021/12/24 08:23:45;;;;;;;8.48;4.68;;;;;;;8.20;100.00;98968.44;5276983;28;20047;-79
2021/12/24 08:26:17;;;;;;;9.32;5.93;;;;;;;8.15;100.00;98971.22;5273060;28;20431;-80
2021/12/24 08:28:49;;;;;;;9.57;6.65;;;;;;;8.13;100.00;98967.03;5265687;28;20457;-80
2021/12/24 08:31:19;;;;;;;8.90;5.72;;;;;;;8.17;100.00;98969.38;5272747;28;20074;-80
2021/12/24 08:33:49;;;;;;;10.88;6.55;;;;;;;8.22;100.00;98970.03;5282153;28;20023;-80
2021/12/24 08:36:20;;;;;;;10.63;6.40;;;;;;;8.21;100.00;98975.31;5283125;28;20046;-80
2021/12/24 08:38:50;;;;;;;10.88;6.72;;;;;;;8.24;100.00;98975.16;5279803;28;20492;-80
2021/12/24 08:41:21;;;;;;;8.88;5.53;;;;;;;8.19;100.00;98983.19;5278126;28;20291;-80
2021/12/24 08:43:52;;;;;;;7.55;4.93;;;;;;;8.23;100.00;98978.69;5257260;28;20028;-80
2021/12/24 08:46:22;;;;;;;11.38;5.60;;;;;;;8.18;100.00;98978.91;5274033;28;20507;-79
2021/12/24 08:48:52;;;;;;;8.80;5.70;;;;;;;8.20;100.00;98984.06;5271930;28;20035;-80
2021/12/24 08:51:23;;;;;;;11.57;6.35;;;;;;;8.22;100.00;98972.63;5276881;28;20491;-80
2021/12/24 08:53:53;;;;;;;9.85;6.80;;;;;;;8.18;100.00;98978.91;5274640;28;20051;-80
2021/12/24 08:56:23;;;;;;;11.13;6.68;;;;;;;8.26;100.00;98974.16;5287227;28;20027;-80
2021/12/24 08:58:57;;;;;;;10.45;6.97;;;;;;;8.25;100.00;98976.84;5281737;28;20035;-80
2021/12/24 09:01:27;;;;;;;13.23;7.55;;;;;;;8.23;100.00;98978.69;5292514;28;20032;-80
2021/12/24 09:03:58;;;;;;;11.75;7.47;;;;;;;8.26;100.00;98976.78;5283332;28;20273;-80
2021/12/24 09:06:28;;;;;;;11.45;6.78;;;;;;;8.25;100.00;98982.03;5267162;28;20114;-80
2021/12/24 09:08:58;;;;;;;13.05;7.97;;;;;;;8.28;100.00;98971.47;5284537;28;20027;-80
2021/12/24 09:11:29;;;;;;;11.35;6.85;;;;;;;8.31;100.00;98976.50;5282365;28;20123;-80
2021/12/24 09:13:59;;;;;;;15.50;7.80;;;;;;;8.26;100.00;98981.97;5271394;28;20027;-80
2021/12/24 09:16:32;;;;;;;13.70;7.90;;;;;;;8.27;100.00;98980.19;5271426;28;20337;-79
2021/12/24 09:19:07;;;;;;;14.95;8.40;;;;;;;8.26;100.00;98986.31;5263575;28;20162;-79
2021/12/24 09:21:38;;;;;;;15.70;8.30;;;;;;;8.32;100.00;98976.44;5274579;28;20038;-80
2021/12/24 09:24:08;;;;;;;17.77;8.93;;;;;;;8.35;100.00;98984.09;5281339;28;20023;-79
2021/12/24 09:26:39;;;;;;;15.85;9.32;;;;;;;8.29;100.00;98984.41;5284908;28;20031;-80
2021/12/24 09:29:11;;;;;;;17.98;9.65;;;;;;;8.34;100.00;98977.19;5285807;28;20061;-80
2021/12/24 09:31:41;;;;;;;18.55;9.70;;;;;;;8.34;100.00;98977.19;5283511;28;20032;-79
2021/12/24 09:34:13;;;;;;;21.45;13.13;;;;;;;8.35;100.00;98972.84;5280517;28;20465;-80
2021/12/24 09:36:44;;;;;;;21.63;11.70;;;;;;;8.43;100.00;98976.75;5269868;28;20259;-79
2021/12/24 09:39:15;;;;;;;16.92;9.98;;;;;;;8.43;100.00;98965.47;5271811;28;20023;-80
2021/12/24 09:41:46;;;;;;;18.67;9.65;;;;;;;8.46;100.00;98970.50;5280372;28;20046;-80
2021/12/24 09:44:16;;;;;;;17.77;10.02;;;;;;;8.44;100.00;98965.41;5272763;28;20647;-79
2021/12/24 09:46:47;;;;;;;17.73;9.45;;;;;;;8.50;100.00;98972.03;5283147;28;20374;-80
2021/12/24 09:49:17;;;;;;;16.75;9.70;;;;;;;8.48;100.00;98961.72;5278706;28;20037;-80
2021/12/24 09:51:51;;;;;;;19.83;10.10;;;;;;;8.47;100.00;98960.03;5279792;28;20046;-80
2021/12/24 09:54:24;;;;;;;16.08;10.10;;;;;;;8.49;100.00;98965.13;5275479;28;20031;-79
2021/12/24 09:56:57;;;;;;;16.42;10.30;;;;;;;8.53;100.00;98972.72;5284397;28;20042;-79
2021/12/24 09:59:27;;;;;;;19.95;11.00;;;;;;;8.58;100.00;98970.69;5282495;28;20183;-80
2021/12/24 10:02:00;;;;;;;18.38;10.50;;;;;;;8.60;100.00;98968.88;5272405;28;20524;-79
2021/12/24 10:04:33;;;;;;;18.75;10.98;;;;;;;8.65;100.00;98972.06;5267580;28;20039;-79
2021/12/24 10:07:07;;;;;;;18.48;10.40;;;;;;;8.60;100.00;98968.88;5266978;28;20126;-79
2021/12/24 10:09:41;;;;;;;17.33;10.27;;;;;;;8.60;100.00;98968.88;5262612;28;20027;-80
2021/12/24 10:12:18;;;;;;;19.25;11.13;;;;;;;8.58;100.00;98975.06;5273198;28;20042;-79
2021/12/24 10:14:50;;;;;;;19.85;10.80;;;;;;;8.72;100.00;98967.38;5253596;28;20032;-79
2021/12/24 10:17:25;;;;;;;17.48;10.65;;;;;;;8.62;100.00;98964.44;5263212;28;20070;-79
2021/12/24 10:19:58;;;;;;;17.50;9.60;;;;;;;8.65;100.00;98979.03;5264585;28;20255;-79
2021/12/24 10:22:41;;;;;;;17.23;9.85;;;;;;;8.74;100.00;98973.34;5269697;28;20447;-79
2021/12/24 10:25:13;;;;;;;16.15;9.55;;;;;;;8.75;100.00;98964.59;5270995;28;20498;-79
2021/12/24 10:27:44;;;;;;;18.17;11.00;;;;;;;8.88;100.00;98969.06;5268242;28;20032;-79
2021/12/24 10:30:21;;;;;;;16.33;9.82;;;;;;;8.80;100.00;98958.22;5270555;28;20186;-79
2021/12/24 10:32:55;;;;;;;14.35;9.63;;;;;;;8.76;100.00;98964.50;5270636;28;20366;-79
2021/12/24 10:35:30;;;;;;;17.17;9.30;;;;;;;8.77;100.00;98958.41;5272529;28;20054;-79
2021/12/24 10:38:19;;;;;;;14.25;8.50;;;;;;;8.90;100.00;98955.97;5281842;28;20078;-79
2021/12/24 10:41:04;;;;;;;16.42;8.55;;;;;;;9.03;100.00;98959.59;5280292;28;20042;-79
2021/12/24 10:43:37;;;;;;;14.80;7.90;;;;;;;9.22;100.00;98950.63;5274681;28;20046;-79
2021/12/24 10:46:25;;;;;;;12.43;7.82;;;;;;;9.31;100.00;98963.16;5283217;28;20051;-79
2021/12/24 10:49:17;;;;;;;13.82;7.22;;;;;;;9.34;100.00;98961.22;5259904;28;20049;-79
2021/12/24 10:52:11;;;;;;;13.45;6.85;;;;;;;9.37;100.00;98958.44;5271457;28;20500;-79
2021/12/24 10:55:05;;;;;;;10.35;6.40;;;;;;;9.27;100.00;98957.28;5286156;28;20054;-79
2021/12/24 10:57:38;;;;;;;13.05;6.57;;;;;;;9.20;100.00;98958.56;5278401;28;20031;-79
2021/12/24 11:00:46;;;;;;;10.38;6.18;;;;;;;9.19;100.00;98959.50;5285150;28;20038;-80
2021/12/24 11:03:22;;;;;;;11.40;6.00;;;;;;;9.13;100.00;98959.81;5255694;28;20056;-80
2021/12/24 11:06:01;;;;;;;11.27;6.38;;;;;;;9.14;100.00;98955.44;5266610;28;20102;-80
2021/12/24 11:08:32;;;;;;;11.45;5.85;;;;;;;9.10;100.00;98959.13;5262779;28;21036;-80
2021/12/24 11:11:05;;;;;;;10.70;5.88;;;;;;;9.09;100.00;98967.88;5256325;28;20389;-80
2021/12/24 11:13:41;;;;;;;9.70;5.68;;;;;;;9.14;100.00;98968.47;5265901;28;20035;-80
2021/12/24 11:16:17;;;;;;;11.43;5.85;;;;;;;9.11;100.00;98962.59;5257712;28;20032;-80
2021/12/24 11:18:56;;;;;;;12.30;5.63;;;;;;;9.13;100.00;98972.00;5262766;28;20108;-80
2021/12/24 11:21:29;;;;;;;11.23;6.13;;;;;;;9.22;100.00;98958.44;5270298;28;20035;-80
2021/12/24 11:23:59;;;;;;;11.10;6.35;;;;;;;9.24;100.00;98960.06;5267984;28;20051;-80
2021/12/24 11:26:34;;;;;;;12.75;5.45;;;;;;;9.24;100.00;98969.63;5265429;28;20250;-80
2021/12/24 11:29:04;;;;;;;9.75;5.57;;;;;;;9.17;100.00;98973.53;5267858;28;20040;-80
2021/12/24 11:31:35;;;;;;;11.75;6.00;;;;;;;9.17;100.00;98961.31;5249281;28;20422;-80
2021/12/24 11:34:05;;;;;;;8.68;4.95;;;;;;;9.16;100.00;98969.22;5267996;28;20056;-80
2021/12/24 11:36:36;;;;;;;8.88;5.65;;;;;;;9.12;100.00;98967.72;5266331;28;20055;-80
2021/12/24 11:39:06;;;;;;;10.57;5.40;;;;;;;9.13;100.00;98962.41;5267608;28;20038;-80
2021/12/24 11:41:38;;;;;;;12.38;5.53;;;;;;;9.14;100.00;98960.66;5266556;28;20077;-80
2021/12/24 11:44:09;;;;;;;10.88;5.28;;;;;;;9.10;100.00;98966.94;5267882;28;20046;-80
2021/12/24 11:46:41;;;;;;;10.10;5.63;;;;;;;9.13;100.00;98959.00;5265273;28;20040;-80
2021/12/24 11:49:12;;;;;;;10.57;5.35;;;;;;;9.13;100.00;98964.19;5260518;28;20470;-80
2021/12/24 11:51:43;;;;;;;10.25;5.53;;;;;;;9.12;100.00;98962.53;5264107;28;20039;-79
2021/12/24 11:54:14;;;;;;;13.82;5.65;;;;;;;9.09;100.00;98962.66;5277997;28;20023;-80
2021/12/24 11:56:54;;;;;;;10.13;5.18;;;;;;;9.11;100.00;98960.84;5284758;28;20068;-78
2021/12/24 11:59:39;;;;;;;11.32;5.30;;;;;;;9.04;100.00;98964.69;5267805;27;20389;-78
2021/12/24 12:02:09;;;;;;;10.48;4.88;;;;;;;9.05;100.00;98952.50;5288688;27;20469;-79
2021/12/24 12:04:39;;;;;;;9.02;5.32;;;;;;;9.03;100.00;98951.75;5287998;27;20023;-78
2021/12/24 12:07:18;;;;;;;8.50;4.95;;;;;;;8.90;100.00;98941.16;5280850;27;20027;-78
2021/12/24 12:09:48;;;;;;;11.02;5.45;;;;;;;8.96;100.00;98961.69;5286220;27;20030;-78
2021/12/24 12:12:32;;;;;;;15.73;6.32;;;;;;;8.89;100.00;99009.81;5303784;27;20032;-78
2021/12/24 12:15:26;;;;;;;2.25;1.02;;;;;;;7.92;100.00;99023.59;5296997;27;20472;-78
2021/12/24 12:17:58;;;;;;;1.00;0.47;;;;;;;7.45;100.00;99022.44;5302035;27;20038;-79
2021/12/24 12:20:57;;;;;;;0.68;0.30;;;;;;;7.01;100.00;99032.38;5299376;27;20361;-78
2021/12/24 12:23:49;;;;;;;0.52;0.15;;;;;;;6.68;100.00;99044.28;5301554;27;20049;-79
2021/12/24 12:26:45;;;;;;;3.70;0.30;;;;;;;6.61;100.00;99040.28;5301902;27;20855;-78
2021/12/24 12:29:19;;;;;;;0.90;0.20;;;;;;;6.44;100.00;99050.56;5216099;22;20046;-77
2021/12/24 12:32:04;;;;;;;0.65;0.40;;;;;;;6.35;100.00;99056.13;5157322;28;20049;-77
2021/12/24 12:34:38;;;;;;;0.90;0.30;;;;;;;6.29;100.00;99059.00;5209115;28;20274;-78
2021/12/24 12:37:18;;;;;;;0.40;0.22;;;;;;;6.17;100.00;99056.94;5187811;28;20053;-78
2021/12/24 12:39:55;;;;;;;0.88;0.30;;;;;;;6.07;100.00;99058.22;5185373;28;20419;-78
2021/12/24 12:42:49;;;;;;;0.47;0.30;;;;;;;6.06;100.00;99049.59;5185530;28;20038;-77
2021/12/24 12:45:31;;;;;;;1.40;0.20;;;;;;;6.02;100.00;99057.56;5249931;28;20038;-77
2021/12/24 12:48:05;;;;;;;1.98;0.40;;;;;;;6.01;100.00;99061.06;5184281;28;20049;-78
2021/12/24 12:50:37;;;;;;;0.40;0.30;;;;;;;5.85;100.00;99066.03;5203733;28;20506;-77
2021/12/24 12:53:26;;;;;;;0.30;0.20;;;;;;;5.81;100.00;99067.09;5193438;28;20288;-77
2021/12/24 12:56:14;;;;;;;0.38;0.22;;;;;;;5.75;100.00;99080.22;5182559;28;20036;-78
2021/12/24 12:58:47;;;;;;;0.30;0.20;;;;;;;5.75;100.00;99084.59;5183609;28;20037;-78
2021/12/24 13:01:19;;;;;;;2.53;0.50;;;;;;;5.78;100.00;99074.09;5185367;28;20116;-77
2021/12/24 13:03:56;;;;;;;0.45;0.25;;;;;;;5.81;100.00;99094.72;5242913;28;20069;-78
2021/12/24 13:06:42;;;;;;;0.35;0.30;;;;;;;5.75;100.00;99084.59;5183352;28;20021;-77
2021/12/24 13:09:18;;;;;;;0.40;0.20;;;;;;;5.67;100.00;99091.81;5248817;28;20090;-77
2021/12/24 13:11:55;;;;;;;0.60;0.50;;;;;;;5.70;100.00;99094.28;5182939;28;20034;-77
2021/12/24 13:14:28;;;;;;;1.58;0.60;;;;;;;5.59;100.00;99101.66;5182211;27;20065;-77
2021/12/24 13:17:17;;;;;;;0.30;0.22;;;;;;;5.62;100.00;99099.78;5184969;28;20041;-78
2021/12/24 13:22:28;;;;;;;0.30;0.20;;;;;;;5.29;100.00;99114.94;5203050;28;20044;-77
2021/12/24 13:25:17;;;;;;;0.30;0.20;;;;;;;5.31;100.00;99124.31;5184211;28;20024;-78
2021/12/24 13:27:52;;;;;;;0.40;0.20;;;;;;;5.24;100.00;99125.47;5184134;28;20061;-78
2021/12/24 13:30:31;;;;;;;0.55;0.10;;;;;;;5.15;100.00;99138.75;5245505;28;20021;-78